createdAt,value
2022-08-14T00:01:11.610Z,100.00
2022-08-14T00:03:41.422Z,100.00
2022-08-14T00:06:25.442Z,100.00
2022-08-14T00:08:59.351Z,100.00
2022-08-14T00:11:31.296Z,100.00
2022-08-14T00:14:02.075Z,100.00
2022-08-14T00:16:41.561Z,100.00
2022-08-14T00:19:21.382Z,100.00
2022-08-14T00:22:02.405Z,100.00
2022-08-14T00:24:34.294Z,100.00
2022-08-14T00:27:04.174Z,100.00
2022-08-14T00:29:40.700Z,100.00
2022-08-14T00:32:56.264Z,100.00
2022-08-14T00:35:02.778Z,100.00
2022-08-14T00:37:34.507Z,100.00
2022-08-14T00:40:19.186Z,100.00
2022-08-14T00:42:58.089Z,100.00
2022-08-14T00:45:27.628Z,100.00
2022-08-14T00:48:00.520Z,100.00
2022-08-14T00:50:31.254Z,100.00
2022-08-14T00:53:02.042Z,100.00
2022-08-14T00:55:32.873Z,100.00
2022-08-14T00:58:28.024Z,100.00
2022-08-14T01:01:09.717Z,100.00
2022-08-14T01:03:43.690Z,100.00
2022-08-14T01:06:18.606Z,100.00
2022-08-14T01:08:51.272Z,100.00
2022-08-14T01:11:36.212Z,100.00
2022-08-14T01:17:59.284Z,100.00
2022-08-14T01:20:50.667Z,100.00
2022-08-14T01:26:55.797Z,100.00
2022-08-14T01:29:43.133Z,100.00
2022-08-14T01:32:23.348Z,100.00
2022-08-14T01:35:18.012Z,100.00
2022-08-14T01:37:56.172Z,100.00
2022-08-14T01:40:36.689Z,100.00
2022-08-14T01:43:18.523Z,100.00
2022-08-14T01:45:57.652Z,100.00
2022-08-14T01:48:38.294Z,100.00
2022-08-14T01:51:18.972Z,100.00
2022-08-14T01:53:55.330Z,100.00
2022-08-14T01:56:37.285Z,100.00
2022-08-14T01:59:20.297Z,100.00
2022-08-14T02:01:59.149Z,100.00
2022-08-14T02:04:55.639Z,100.00
2022-08-14T02:07:44.579Z,100.00
2022-08-14T02:10:26.257Z,100.00
2022-08-14T02:12:59.419Z,100.00
2022-08-14T02:15:32.480Z,100.00
2022-08-14T02:18:04.853Z,100.00
2022-08-14T02:20:36.026Z,100.00
2022-08-14T02:23:08.332Z,100.00
2022-08-14T02:25:40.229Z,100.00
2022-08-14T02:28:23.652Z,100.00
2022-08-14T02:31:11.429Z,100.00
2022-08-14T02:33:47.218Z,100.00
2022-08-14T02:37:03.638Z,100.00
2022-08-14T02:39:09.660Z,100.00
2022-08-14T02:41:45.059Z,100.00
2022-08-14T02:44:29.701Z,100.00
2022-08-14T02:47:01.326Z,100.00
2022-08-14T02:49:34.247Z,100.00
2022-08-14T02:52:56.754Z,100.00
2022-08-14T02:54:56.174Z,100.00
2022-08-14T02:57:40.196Z,100.00
2022-08-14T03:00:18.696Z,100.00
2022-08-14T03:02:58.646Z,100.00
2022-08-14T03:05:36.162Z,100.00
2022-08-14T03:08:09.224Z,100.00
2022-08-14T03:10:41.845Z,100.00
2022-08-14T03:13:13.726Z,100.00
2022-08-14T03:15:55.590Z,100.00
2022-08-14T03:18:32.821Z,100.00
2022-08-14T03:21:08.106Z,100.00
2022-08-14T03:23:39.269Z,100.00
2022-08-14T03:26:13.040Z,100.00
2022-08-14T03:28:50.160Z,100.00
2022-08-14T03:31:25.879Z,100.00
2022-08-14T03:34:01.898Z,100.00
2022-08-14T03:37:38.519Z,100.00
2022-08-14T03:39:24.116Z,100.00
2022-08-14T03:42:00.057Z,100.00
2022-08-14T03:45:18.800Z,100.00
2022-08-14T03:47:24.493Z,100.00
2022-08-14T03:50:15.135Z,100.00
2022-08-14T03:53:00.525Z,100.00
2022-08-14T03:55:30.749Z,100.00
2022-08-14T03:58:00.456Z,100.00
2022-08-14T04:00:43.651Z,100.00
2022-08-14T04:03:23.533Z,100.00
2022-08-14T04:05:55.324Z,100.00
2022-08-14T04:08:30.592Z,100.00
2022-08-14T04:11:07.814Z,100.00
2022-08-14T04:13:42.705Z,100.00
2022-08-14T04:16:13.811Z,100.00
2022-08-14T04:18:43.716Z,100.00
2022-08-14T04:21:16.319Z,100.00
2022-08-14T04:23:56.976Z,100.00
2022-08-14T04:26:42.895Z,100.00
2022-08-14T04:29:15.487Z,100.00
2022-08-14T04:33:10.489Z,100.00
2022-08-14T04:34:37.678Z,100.00
2022-08-14T04:37:30.041Z,100.00
2022-08-14T04:40:16.946Z,100.00
2022-08-14T04:43:08.736Z,100.00
2022-08-14T04:45:43.372Z,100.00
2022-08-14T04:48:39.267Z,100.00
2022-08-14T04:51:07.613Z,100.00
2022-08-14T04:53:43.105Z,100.00
2022-08-14T04:56:30.178Z,100.00
2022-08-14T04:59:10.158Z,100.00
2022-08-14T05:01:48.828Z,100.00
2022-08-14T05:04:22.899Z,100.00
2022-08-14T05:06:53.521Z,100.00
2022-08-14T05:09:28.624Z,100.00
2022-08-14T05:12:00.764Z,100.00
2022-08-14T05:14:53.344Z,100.00
2022-08-14T05:17:32.157Z,100.00
2022-08-14T05:21:04.236Z,100.00
2022-08-14T05:23:03.743Z,100.00
2022-08-14T05:25:34.777Z,100.00
2022-08-14T05:28:16.170Z,100.00
2022-08-14T05:30:46.781Z,100.00
2022-08-14T05:33:18.764Z,100.00
2022-08-14T05:35:49.740Z,100.00
2022-08-14T05:38:22.380Z,100.00
2022-08-14T05:41:02.767Z,100.00
2022-08-14T05:43:41.400Z,100.00
2022-08-14T05:46:15.263Z,100.00
2022-08-14T05:48:45.369Z,100.00
2022-08-14T05:51:14.941Z,100.00
2022-08-14T05:53:57.007Z,100.00
2022-08-14T05:56:32.562Z,100.00
2022-08-14T05:59:01.933Z,100.00
2022-08-14T06:01:31.478Z,100.00
2022-08-14T06:04:00.666Z,100.00
2022-08-14T06:06:31.693Z,100.00
2022-08-14T06:09:03.985Z,100.00
2022-08-14T06:11:35.108Z,100.00
2022-08-14T06:14:06.641Z,100.00
2022-08-14T06:16:43.004Z,100.00
2022-08-14T06:19:18.363Z,100.00
2022-08-14T06:21:48.139Z,100.00
2022-08-14T06:24:18.313Z,100.00
2022-08-14T06:26:54.424Z,100.00
2022-08-14T06:29:26.853Z,100.00
2022-08-14T06:32:38.691Z,100.00
2022-08-14T06:35:04.236Z,100.00
2022-08-14T06:37:43.622Z,100.00
2022-08-14T06:40:26.999Z,100.00
2022-08-14T06:43:03.477Z,100.00
2022-08-14T06:45:33.299Z,100.00
2022-08-14T06:48:03.632Z,100.00
2022-08-14T06:50:37.861Z,100.00
2022-08-14T06:53:10.394Z,100.00
2022-08-14T06:55:58.263Z,100.00
2022-08-14T06:58:32.578Z,100.00
2022-08-14T07:01:26.748Z,100.00
2022-08-14T07:04:23.057Z,100.00
2022-08-14T07:06:59.489Z,100.00
2022-08-14T07:09:43.964Z,100.00
2022-08-14T07:12:55.015Z,100.00
2022-08-14T07:15:10.147Z,100.00
2022-08-14T07:17:47.219Z,100.00
2022-08-14T07:20:30.821Z,100.00
2022-08-14T07:23:07.769Z,100.00
2022-08-14T07:25:38.606Z,100.00
2022-08-14T07:28:20.664Z,100.00
2022-08-14T07:30:52.934Z,100.00
2022-08-14T07:33:24.550Z,100.00
2022-08-14T07:36:00.880Z,100.00
2022-08-14T07:38:36.238Z,100.00
2022-08-14T07:41:14.693Z,100.00
2022-08-14T07:43:55.446Z,100.00
2022-08-14T07:46:28.255Z,100.00
2022-08-14T07:49:02.101Z,100.00
2022-08-14T07:51:36.985Z,100.00
2022-08-14T07:54:11.730Z,100.00
2022-08-14T07:56:48.138Z,100.00
2022-08-14T07:59:40.592Z,100.00
2022-08-14T08:02:18.606Z,100.00
2022-08-14T08:04:53.070Z,100.00
2022-08-14T08:07:30.136Z,100.00
2022-08-14T08:10:46.045Z,100.00
2022-08-14T08:13:24.190Z,100.00
2022-08-14T08:15:58.903Z,100.00
2022-08-14T08:18:32.537Z,100.00
2022-08-14T08:21:08.549Z,100.00
2022-08-14T08:23:51.127Z,100.00
2022-08-14T08:26:20.716Z,100.00
2022-08-14T08:28:57.487Z,100.00
2022-08-14T08:31:35.024Z,100.00
2022-08-14T08:34:14.355Z,100.00
2022-08-14T08:36:47.473Z,100.00
2022-08-14T08:39:20.754Z,100.00
2022-08-14T08:41:53.835Z,100.00
2022-08-14T08:44:34.321Z,100.00
2022-08-14T08:47:08.410Z,100.00
2022-08-14T08:49:53.014Z,100.00
2022-08-14T08:52:42.364Z,100.00
2022-08-14T08:55:32.841Z,100.00
2022-08-14T08:58:16.643Z,100.00
2022-08-14T09:00:54.063Z,100.00
2022-08-14T09:03:27.415Z,100.00
2022-08-14T09:06:01.548Z,100.00
2022-08-14T09:08:36.928Z,100.00
2022-08-14T09:11:21.167Z,100.00
2022-08-14T09:13:52.208Z,100.00
2022-08-14T09:16:26.095Z,100.00
2022-08-14T09:18:58.678Z,100.00
2022-08-14T09:21:31.224Z,100.00
2022-08-14T09:24:26.260Z,100.00
2022-08-14T09:26:53.714Z,100.00
2022-08-14T09:29:23.801Z,100.00
2022-08-14T09:31:57.485Z,100.00
2022-08-14T09:34:58.319Z,100.00
2022-08-14T09:37:40.164Z,100.00
2022-08-14T09:40:21.262Z,100.00
2022-08-14T09:42:53.983Z,100.00
2022-08-14T09:45:39.743Z,100.00
2022-08-14T09:48:16.955Z,100.00
2022-08-14T09:50:48.444Z,100.00
2022-08-14T09:54:18.780Z,100.00
2022-08-14T09:56:31.049Z,100.00
2022-08-14T09:59:15.308Z,100.00
2022-08-14T10:01:53.171Z,100.00
2022-08-14T10:04:34.355Z,100.00
2022-08-14T10:07:10.278Z,100.00
2022-08-14T10:09:59.861Z,100.00
2022-08-14T10:12:53.116Z,100.00
2022-08-14T10:15:25.352Z,100.00
2022-08-14T10:18:17.320Z,100.00
2022-08-14T10:20:57.728Z,100.00
2022-08-14T10:23:34.995Z,100.00
2022-08-14T10:26:09.171Z,100.00
2022-08-14T10:29:18.238Z,100.00
2022-08-14T10:31:44.871Z,100.00
2022-08-14T10:34:20.021Z,100.00
2022-08-14T10:37:14.271Z,100.00
2022-08-14T10:39:47.019Z,100.00
2022-08-14T10:42:38.652Z,98.90
2022-08-14T10:45:21.481Z,97.19
2022-08-14T10:48:07.485Z,99.82
2022-08-14T10:50:46.473Z,99.26
2022-08-14T10:53:16.008Z,100.00
2022-08-14T10:55:45.995Z,100.00
2022-08-14T10:58:17.233Z,100.00
2022-08-14T11:00:57.702Z,99.19
2022-08-14T11:03:55.434Z,100.00
2022-08-14T11:06:20.342Z,97.46
2022-08-14T11:08:52.203Z,97.37
2022-08-14T11:11:28.563Z,95.48
2022-08-14T11:14:09.553Z,94.57
2022-08-14T11:16:41.187Z,95.98
2022-08-14T11:19:24.305Z,96.12
2022-08-14T11:21:56.358Z,95.28
2022-08-14T11:24:54.489Z,94.54
2022-08-14T11:27:25.754Z,91.72
2022-08-14T11:30:49.298Z,91.56
2022-08-14T11:32:56.547Z,91.39
2022-08-14T11:35:36.956Z,94.19
2022-08-14T11:38:16.990Z,94.65
2022-08-14T11:40:47.621Z,93.62
2022-08-14T11:43:17.793Z,91.95
2022-08-14T11:45:49.806Z,91.29
2022-08-14T11:49:01.816Z,88.86
2022-08-14T11:51:24.036Z,90.08
2022-08-14T11:53:55.959Z,91.92
2022-08-14T11:56:29.643Z,91.92
2022-08-14T11:58:59.637Z,88.18
2022-08-14T12:01:32.087Z,86.65
2022-08-14T12:04:32.085Z,86.43
2022-08-14T12:07:03.714Z,88.34
2022-08-14T12:09:34.360Z,86.52
2022-08-14T12:12:16.156Z,89.09
2022-08-14T12:15:03.344Z,91.12
2022-08-14T12:17:47.568Z,88.66
2022-08-14T12:20:30.070Z,91.19
2022-08-14T12:23:05.632Z,89.34
2022-08-14T12:25:37.453Z,88.19
2022-08-14T12:28:27.383Z,86.36
2022-08-14T12:31:13.118Z,84.40
2022-08-14T12:33:47.202Z,84.55
2022-08-14T12:36:23.019Z,85.30
2022-08-14T12:38:55.631Z,82.98
2022-08-14T12:41:28.124Z,91.87
2022-08-14T12:44:06.333Z,90.41
2022-08-14T12:46:43.470Z,89.61
2022-08-14T12:49:19.050Z,87.61
2022-08-14T12:51:58.080Z,83.63
2022-08-14T12:54:29.350Z,82.63
2022-08-14T12:57:10.304Z,79.90
2022-08-14T12:59:43.268Z,83.86
2022-08-14T13:02:26.227Z,83.80
2022-08-14T13:04:58.349Z,86.68
2022-08-14T13:07:32.205Z,90.53
2022-08-14T13:10:45.968Z,93.61
2022-08-14T13:13:13.233Z,95.42
2022-08-14T13:15:46.617Z,94.18
2022-08-14T13:18:17.356Z,90.20
2022-08-14T13:20:57.754Z,88.30
2022-08-14T13:23:36.211Z,87.78
2022-08-14T13:26:05.673Z,85.98
2022-08-14T13:29:01.519Z,85.52
2022-08-14T13:31:34.192Z,87.82
2022-08-14T13:34:04.726Z,87.17
2022-08-14T13:36:54.656Z,87.51
2022-08-14T13:39:25.530Z,86.19
2022-08-14T13:41:55.527Z,84.90
2022-08-14T13:44:28.841Z,84.75
2022-08-14T13:46:58.871Z,84.21
2022-08-14T13:49:29.147Z,82.80
2022-08-14T13:52:00.647Z,83.45
2022-08-14T13:54:32.890Z,83.61
2022-08-14T13:57:03.826Z,84.09
2022-08-14T13:59:37.724Z,84.64
2022-08-14T14:02:09.343Z,83.20
2022-08-14T14:04:42.115Z,83.24
2022-08-14T14:07:15.144Z,82.06
2022-08-14T14:09:51.147Z,82.11
2022-08-14T14:12:37.721Z,81.58
2022-08-14T14:15:13.870Z,82.32
2022-08-14T14:17:44.355Z,82.95
2022-08-14T14:20:33.989Z,84.47
2022-08-14T14:23:07.118Z,84.56
2022-08-14T14:25:48.666Z,83.51
2022-08-14T14:28:24.474Z,83.39
2022-08-14T14:30:57.472Z,84.46
2022-08-14T14:33:47.833Z,85.68
2022-08-14T14:36:21.961Z,85.13
2022-08-14T14:38:54.925Z,84.85
2022-08-14T14:41:26.050Z,85.72
2022-08-14T14:43:59.022Z,86.36
2022-08-14T14:46:36.290Z,86.88
2022-08-14T14:49:14.697Z,87.99
2022-08-14T14:51:51.118Z,87.94
2022-08-14T14:54:31.183Z,88.07
2022-08-14T14:57:02.299Z,88.86
2022-08-14T14:59:33.616Z,88.50
2022-08-14T15:02:07.953Z,88.79
2022-08-14T15:04:38.571Z,87.87
2022-08-14T15:07:13.074Z,88.27
2022-08-14T15:09:46.716Z,88.41
2022-08-14T15:12:55.318Z,89.76
2022-08-14T15:15:08.461Z,89.78
2022-08-14T15:17:41.803Z,89.72
2022-08-14T15:20:17.022Z,89.88
2022-08-14T15:22:51.343Z,90.57
2022-08-14T15:25:22.747Z,90.73
2022-08-14T15:27:54.525Z,90.28
2022-08-14T15:30:32.046Z,90.86
2022-08-14T15:33:01.323Z,91.00
2022-08-14T15:35:34.108Z,91.55
2022-08-14T15:38:08.872Z,92.78
2022-08-14T15:40:41.393Z,93.34
2022-08-14T15:43:12.776Z,93.93
2022-08-14T15:45:42.771Z,95.11
2022-08-14T15:48:22.051Z,94.89
2022-08-14T15:50:51.943Z,94.93
2022-08-14T15:53:23.583Z,95.03
2022-08-14T15:55:55.740Z,95.90
2022-08-14T15:58:26.125Z,96.30
2022-08-14T16:01:22.492Z,94.96
2022-08-14T16:03:59.811Z,96.75
2022-08-14T16:06:30.670Z,97.97
2022-08-14T16:09:07.760Z,97.85
2022-08-14T16:11:47.585Z,98.30
2022-08-14T16:14:24.325Z,97.64
2022-08-14T16:17:00.084Z,96.75
2022-08-14T16:19:33.127Z,96.92
2022-08-14T16:22:58.251Z,97.47
2022-08-14T16:25:05.299Z,98.08
2022-08-14T16:27:41.573Z,97.44
2022-08-14T16:30:24.898Z,97.34
2022-08-14T16:32:56.219Z,98.18
2022-08-14T16:35:43.023Z,98.10
2022-08-14T16:38:44.470Z,98.46
2022-08-14T16:41:26.562Z,98.43
2022-08-14T16:44:01.447Z,99.83
2022-08-14T16:46:35.382Z,100.00
2022-08-14T16:49:07.169Z,100.00
2022-08-14T16:51:38.635Z,100.00
2022-08-14T16:54:33.884Z,100.00
2022-08-14T16:57:16.341Z,100.00
2022-08-14T16:59:57.506Z,100.00
2022-08-14T17:02:35.623Z,100.00
2022-08-14T17:05:18.488Z,100.00
2022-08-14T17:08:32.400Z,100.00
2022-08-14T17:11:09.662Z,100.00
2022-08-14T17:13:48.014Z,100.00
2022-08-14T17:16:37.885Z,100.00
2022-08-14T17:19:09.949Z,100.00
2022-08-14T17:21:47.050Z,100.00
2022-08-14T17:24:58.511Z,100.00
2022-08-14T17:27:08.767Z,100.00
2022-08-14T17:29:44.585Z,100.00
2022-08-14T17:35:53.125Z,100.00
2022-08-14T17:38:38.621Z,100.00
2022-08-14T17:41:27.300Z,100.00
2022-08-14T17:44:18.829Z,100.00
2022-08-14T17:46:55.261Z,100.00
2022-08-14T17:49:32.107Z,100.00
2022-08-14T17:52:07.410Z,100.00
2022-08-14T17:54:44.355Z,100.00
2022-08-14T17:57:15.813Z,100.00
2022-08-14T17:59:49.403Z,100.00
2022-08-14T18:02:22.669Z,100.00
2022-08-14T18:05:02.837Z,100.00
2022-08-14T18:07:59.320Z,100.00
2022-08-14T18:10:52.971Z,100.00
2022-08-14T18:13:11.784Z,100.00
2022-08-14T18:15:42.835Z,100.00
2022-08-14T18:18:13.077Z,100.00
2022-08-14T18:21:39.577Z,100.00
2022-08-14T18:23:41.976Z,100.00
2022-08-14T18:26:36.952Z,100.00
2022-08-14T18:29:02.697Z,100.00
2022-08-14T18:31:42.221Z,100.00
2022-08-14T18:34:31.220Z,100.00
2022-08-14T18:37:16.825Z,100.00
2022-08-14T18:40:03.193Z,100.00
2022-08-14T18:42:46.477Z,100.00
2022-08-14T18:45:18.589Z,100.00
2022-08-14T18:48:14.288Z,100.00
2022-08-14T18:50:52.491Z,100.00
2022-08-14T18:53:25.424Z,100.00
2022-08-14T18:56:09.576Z,100.00
2022-08-14T18:58:48.793Z,100.00
2022-08-14T19:01:30.092Z,100.00
2022-08-14T19:04:01.626Z,100.00
2022-08-14T19:06:43.320Z,100.00
2022-08-14T19:09:54.359Z,100.00
2022-08-14T19:13:03.349Z,100.00
2022-08-14T19:15:35.672Z,100.00
2022-08-14T19:18:38.126Z,100.00
2022-08-14T19:21:13.530Z,100.00
2022-08-14T19:23:44.534Z,100.00
2022-08-14T19:26:35.609Z,100.00
2022-08-14T19:29:37.985Z,100.00
2022-08-14T19:32:40.157Z,100.00
2022-08-14T19:35:49.569Z,100.00
2022-08-14T19:38:53.843Z,100.00
2022-08-14T19:41:29.179Z,100.00
2022-08-14T19:44:12.851Z,100.00
2022-08-14T19:47:02.549Z,100.00
2022-08-14T19:50:07.249Z,100.00
2022-08-14T19:52:24.831Z,100.00
2022-08-14T19:54:54.643Z,100.00
2022-08-14T19:57:25.101Z,100.00
2022-08-14T20:00:28.503Z,100.00
2022-08-14T20:03:11.846Z,100.00
2022-08-14T20:05:46.469Z,100.00
2022-08-14T20:11:07.164Z,100.00
2022-08-14T20:11:20.796Z,100.00
2022-08-14T20:14:09.544Z,100.00
2022-08-14T20:16:42.785Z,100.00
2022-08-14T20:19:18.794Z,100.00
2022-08-14T20:22:04.590Z,100.00
2022-08-14T20:24:41.731Z,100.00
2022-08-14T20:27:33.897Z,100.00
2022-08-14T20:30:34.930Z,100.00
2022-08-14T20:33:11.115Z,100.00
2022-08-14T20:35:47.688Z,100.00
2022-08-14T20:38:29.016Z,100.00
2022-08-14T20:41:06.667Z,100.00
2022-08-14T20:43:57.732Z,100.00
2022-08-14T20:46:30.285Z,100.00
2022-08-14T20:49:05.705Z,100.00
2022-08-14T20:51:47.742Z,100.00
2022-08-14T20:54:34.361Z,100.00
2022-08-14T20:57:10.450Z,100.00
2022-08-14T20:59:43.478Z,100.00
2022-08-14T21:02:34.703Z,100.00
2022-08-14T21:05:18.017Z,100.00
2022-08-14T21:07:50.761Z,100.00
2022-08-14T21:10:35.698Z,100.00
2022-08-14T21:13:26.373Z,100.00
2022-08-14T21:15:58.756Z,100.00
2022-08-14T21:18:32.639Z,100.00
2022-08-14T21:21:07.572Z,100.00
2022-08-14T21:23:54.028Z,100.00
2022-08-14T21:26:51.506Z,100.00
2022-08-14T21:29:17.515Z,100.00
2022-08-14T21:31:56.071Z,100.00
2022-08-14T21:34:32.318Z,100.00
2022-08-14T21:37:09.986Z,100.00
2022-08-14T21:39:39.375Z,100.00
2022-08-14T21:42:10.916Z,100.00
2022-08-14T21:44:42.911Z,100.00
2022-08-14T21:47:16.546Z,100.00
2022-08-14T21:49:48.222Z,100.00
2022-08-14T21:52:52.077Z,100.00
2022-08-14T21:55:14.896Z,100.00
2022-08-14T21:58:04.143Z,100.00
2022-08-14T22:00:43.142Z,100.00
2022-08-14T22:03:17.524Z,100.00
2022-08-14T22:05:50.827Z,100.00
2022-08-14T22:08:26.826Z,100.00
2022-08-14T22:10:57.812Z,100.00
2022-08-14T22:13:32.530Z,100.00
2022-08-14T22:16:02.532Z,100.00
2022-08-14T22:18:32.264Z,100.00
2022-08-14T22:21:05.720Z,100.00
2022-08-14T22:23:37.023Z,100.00
2022-08-14T22:26:07.839Z,100.00
2022-08-14T22:28:37.771Z,100.00
2022-08-14T22:31:23.073Z,100.00
2022-08-14T22:33:57.836Z,100.00
2022-08-14T22:36:47.278Z,100.00
2022-08-14T22:39:16.742Z,100.00
2022-08-14T22:41:55.766Z,100.00
2022-08-14T22:44:29.277Z,100.00
2022-08-14T22:46:59.116Z,100.00
2022-08-14T22:50:28.996Z,100.00
2022-08-14T22:52:32.369Z,100.00
2022-08-14T22:55:05.981Z,100.00
2022-08-14T22:57:37.283Z,100.00
2022-08-14T23:00:08.667Z,100.00
2022-08-14T23:02:37.851Z,100.00
2022-08-14T23:05:15.078Z,100.00
2022-08-14T23:08:59.740Z,100.00
2022-08-14T23:10:35.232Z,100.00
2022-08-14T23:13:06.768Z,100.00
2022-08-14T23:15:37.437Z,100.00
2022-08-14T23:18:07.569Z,100.00
2022-08-14T23:20:42.557Z,100.00
2022-08-14T23:23:22.894Z,100.00
2022-08-14T23:26:00.334Z,100.00
2022-08-14T23:28:56.628Z,100.00
2022-08-14T23:31:35.704Z,100.00
2022-08-14T23:34:07.463Z,100.00
2022-08-14T23:36:54.481Z,100.00
2022-08-14T23:39:31.138Z,100.00
2022-08-14T23:42:04.864Z,100.00
2022-08-14T23:44:37.750Z,100.00
2022-08-14T23:47:11.843Z,100.00
2022-08-14T23:50:03.671Z,100.00
2022-08-14T23:52:55.965Z,100.00
2022-08-14T23:55:34.455Z,100.00
2022-08-14T23:58:03.481Z,100.00
